Time;durP1;ratioP1;P1;durP2;ratioP2;P2;SDS_P1;SDS_P2;PMS_P1;PMS_P2;Temp;Humidity;BMP_temperature;BMP_pressure;BME280_temperature;BME280_humidity;BME280_pressure;Samples;Min_cycle;Max_cycle;Signal;HPM_P1;HPM_P2
2023/05/02 00:00:12;;;;;;;;;;;;;;;10.59;100.00;101939.88;4934094;28;19928;-75
2023/05/02 00:02:37;;;;;;;;;;;;;;;10.54;100.00;101949.16;4939325;28;20357;-75
2023/05/02 00:05:04;;;;;;;;;;;;;;;10.56;100.00;101948.13;4932756;28;19927;-74
2023/05/02 00:07:29;;;;;;;;;;;;;;;10.52;100.00;101943.00;4940197;28;20291;-74
2023/05/02 00:09:54;;;;;;;;;;;;;;;10.53;100.00;101940.25;4936273;28;20623;-75
2023/05/02 00:12:19;;;;;;;;;;;;;;;10.55;100.00;101945.50;4939072;28;19930;-74
2023/05/02 00:14:45;;;;;;;;;;;;;;;10.65;100.00;101952.06;4935282;28;19966;-75
2023/05/02 00:17:16;;;;;;;;;;;;;;;10.71;100.00;101950.81;4938147;28;20368;-75
2023/05/02 00:19:41;;;;;;;;;;;;;;;10.70;100.00;101957.16;4936238;28;19929;-74
2023/05/02 00:22:06;;;;;;;;;;;;;;;10.64;100.00;101953.88;4940690;28;19927;-74
2023/05/02 00:24:32;;;;;;;;;;;;;;;10.63;100.00;101959.34;4934802;28;19922;-74
2023/05/02 00:26:57;;;;;;;;;;;;;;;10.69;100.00;101955.41;4935584;28;20302;-75
2023/05/02 00:29:22;;;;;;;;;;;;;;;10.55;100.00;101962.50;4934241;28;19922;-75
2023/05/02 00:31:47;;;;;;;;;;;;;;;10.50;100.00;101953.84;4931105;28;19926;-74
2023/05/02 00:34:12;;;;;;;;;;;;;;;10.48;100.00;101950.38;4929634;28;19957;-74
2023/05/02 00:36:38;;;;;;;;;;;;;;;10.47;100.00;101962.09;4940869;28;20006;-75
2023/05/02 00:39:03;;;;;;;;;;;;;;;10.50;100.00;101965.44;4938828;28;20013;-74
2023/05/02 00:41:28;;;;;;;;;;;;;;;10.41;100.00;101962.44;4936626;28;19965;-74
2023/05/02 00:43:54;;;;;;;;;;;;;;;10.52;100.00;101954.63;4934657;28;19942;-75
2023/05/02 00:46:19;;;;;;;;;;;;;;;10.51;100.00;101960.94;4937490;28;19927;-75
2023/05/02 00:48:44;;;;;;;;;;;;;;;10.48;100.00;101939.66;4939382;28;19922;-75
2023/05/02 00:51:11;;;;;;;;;;;;;;;10.47;100.00;101959.41;4936835;28;20056;-74
2023/05/02 00:53:37;;;;;;;;;;;;;;;10.45;100.00;101970.25;4942113;28;19954;-74
2023/05/02 00:56:02;;;;;;;;;;;;;;;10.40;100.00;101963.41;4940144;28;20014;-75
2023/05/02 00:58:27;;;;;;;;;;;;;;;10.39;100.00;101970.59;4934574;28;19927;-75
2023/05/02 01:01:11;;;;;;;;;;;;;;;10.44;100.00;101973.88;4941030;28;20328;-75
2023/05/02 01:03:51;;;;;;;;;;;;;;;10.30;100.00;101974.66;4933961;28;19927;-75
2023/05/02 01:06:35;;;;;;;;;;;;;;;10.24;100.00;101963.41;4933366;28;19922;-74
2023/05/02 01:09:06;;;;;;;;;;;;;;;10.30;100.00;101966.63;4935510;28;19923;-76
2023/05/02 01:11:43;;;;;;;;;;;;;;;10.31;100.00;101967.47;4934631;28;19922;-75
2023/05/02 01:14:09;;;;;;;;;;;;;;;10.17;100.00;101966.47;4935440;28;20382;-74
2023/05/02 01:16:37;;;;;;;;;;;;;;;10.02;100.00;101965.53;4937946;28;19944;-74
2023/05/02 01:19:03;;;;;;;;;;;;;;;10.04;100.00;101973.47;4936276;28;20029;-74
2023/05/02 01:21:29;;;;;;;;;;;;;;;10.10;100.00;101970.44;4937128;28;19926;-74
2023/05/02 01:24:11;;;;;;;;;;;;;;;10.09;100.00;101973.19;4939313;28;19933;-74
2023/05/02 01:26:42;;;;;;;;;;;;;;;10.03;100.00;101980.69;4934907;28;20001;-75
2023/05/02 01:29:08;;;;;;;;;;;;;;;10.08;100.00;101969.66;4937006;28;19978;-74
2023/05/02 01:31:34;;;;;;;;;;;;;;;10.04;100.00;101973.47;4924639;29;20465;-74
2023/05/02 01:34:00;;;;;;;;;;;;;;;10.04;100.00;101979.72;4938557;28;20456;-74
2023/05/02 01:36:26;;;;;;;;;;;;;;;10.02;100.00;101970.91;4942394;28;19928;-75
2023/05/02 01:38:51;;;;;;;;;;;;;;;9.97;100.00;101981.03;4932619;28;19927;-74
2023/05/02 01:41:16;;;;;;;;;;;;;;;10.01;100.00;101984.38;4932050;28;19922;-75
2023/05/02 01:43:41;;;;;;;;;;;;;;;10.02;100.00;101981.63;4940107;28;19922;-74
2023/05/02 01:46:06;;;;;;;;;;;;;;;10.02;100.00;101991.47;4936211;28;19929;-75
2023/05/02 01:48:32;;;;;;;;;;;;;;;9.98;100.00;101992.59;4936641;28;20289;-74
2023/05/02 01:50:57;;;;;;;;;;;;;;;10.00;100.00;101996.94;4934893;28;19922;-73
2023/05/02 01:53:24;;;;;;;;;;;;;;;10.05;100.00;102002.91;4937358;28;20260;-74
2023/05/02 01:55:49;;;;;;;;;;;;;;;10.10;100.00;101994.59;4937571;28;20510;-74
2023/05/02 01:58:14;;;;;;;;;;;;;;;10.01;100.00;101998.69;4936224;28;20009;-74
2023/05/02 02:00:40;;;;;;;;;;;;;;;10.09;100.00;102005.41;4936701;28;19929;-75
2023/05/02 02:03:05;;;;;;;;;;;;;;;10.10;100.00;101999.09;4938358;29;19933;-74
2023/05/02 02:05:31;;;;;;;;;;;;;;;10.08;100.00;102001.88;4936812;28;19923;-74
2023/05/02 02:07:57;;;;;;;;;;;;;;;10.06;100.00;102011.81;4937173;28;20197;-75
2023/05/02 02:10:22;;;;;;;;;;;;;;;10.04;100.00;102017.28;4933031;28;20435;-76
2023/05/02 02:12:49;;;;;;;;;;;;;;;9.98;100.00;102017.63;4941587;28;19923;-74
2023/05/02 02:15:14;;;;;;;;;;;;;;;10.02;100.00;102008.47;4937951;28;19928;-74
2023/05/02 02:17:43;;;;;;;;;;;;;;;10.08;100.00;102009.03;4940844;28;19922;-74
2023/05/02 02:20:08;;;;;;;;;;;;;;;9.99;100.00;102014.00;4936558;28;19946;-74
2023/05/02 02:22:35;;;;;;;;;;;;;;;10.03;100.00;102018.25;4925536;29;20362;-75
2023/05/02 02:25:01;;;;;;;;;;;;;;;10.05;100.00;102012.78;4934922;28;20635;-74
2023/05/02 02:27:27;;;;;;;;;;;;;;;10.02;100.00;102021.00;4937242;28;19922;-74
2023/05/02 02:29:52;;;;;;;;;;;;;;;10.02;100.00;102010.25;4936690;28;20122;-74
2023/05/02 02:32:17;;;;;;;;;;;;;;;10.06;100.00;102017.19;4937746;28;19926;-74
2023/05/02 02:34:42;;;;;;;;;;;;;;;10.09;100.00;102016.13;4934922;28;19925;-75
2023/05/02 02:37:13;;;;;;;;;;;;;;;10.11;100.00;102025.84;4934081;28;20341;-74
2023/05/02 02:39:45;;;;;;;;;;;;;;;10.12;100.00;102024.00;4928515;29;20223;-74
2023/05/02 02:42:15;;;;;;;;;;;;;;;10.09;100.00;102027.75;4918173;29;20034;-74
2023/05/02 02:44:40;;;;;;;;;;;;;;;10.10;100.00;102032.16;4937725;28;19942;-74
2023/05/02 02:47:07;;;;;;;;;;;;;;;10.11;100.00;102041.94;4933430;28;20363;-74
2023/05/02 02:49:42;;;;;;;;;;;;;;;10.16;100.00;102039.88;4935547;28;19963;-75
2023/05/02 02:52:16;;;;;;;;;;;;;;;10.18;100.00;102048.72;4940550;28;19922;-75
2023/05/02 02:54:45;;;;;;;;;;;;;;;10.14;100.00;102047.16;4937626;28;19933;-75
2023/05/02 02:57:26;;;;;;;;;;;;;;;10.06;100.00;102047.56;4934464;28;19922;-75
2023/05/02 02:59:57;;;;;;;;;;;;;;;10.14;100.00;102057.88;4903805;29;19926;-75
2023/05/02 03:02:26;;;;;;;;;;;;;;;10.17;100.00;102057.72;4948521;28;19962;-74
2023/05/02 03:04:51;;;;;;;;;;;;;;;10.12;100.00;102059.78;4942440;28;19986;-74
2023/05/02 03:07:16;;;;;;;;;;;;;;;10.05;100.00;102061.97;4933612;28;19926;-75
2023/05/02 03:09:42;;;;;;;;;;;;;;;10.00;100.00;102064.03;4935905;28;19923;-74
2023/05/02 03:12:07;;;;;;;;;;;;;;;9.96;100.00;102062.47;4936551;28;19918;-74
2023/05/02 03:14:33;;;;;;;;;;;;;;;9.91;100.00;102072.56;4935210;28;19922;-75
2023/05/02 03:16:58;;;;;;;;;;;;;;;9.96;100.00;102077.69;4944353;28;20401;-75
2023/05/02 03:19:23;;;;;;;;;;;;;;;9.95;100.00;102079.50;4934951;28;20377;-75
2023/05/02 03:21:48;;;;;;;;;;;;;;;9.90;100.00;102084.25;4933563;28;19927;-75
2023/05/02 03:24:14;;;;;;;;;;;;;;;9.89;100.00;102087.88;4933956;28;19930;-75
2023/05/02 03:26:39;;;;;;;;;;;;;;;9.88;100.00;102086.16;4933916;28;19928;-75
2023/05/02 03:29:04;;;;;;;;;;;;;;;9.93;100.00;102096.66;4930808;28;19930;-75
2023/05/02 03:31:30;;;;;;;;;;;;;;;9.92;100.00;102092.25;4925384;29;19926;-75
2023/05/02 03:33:55;;;;;;;;;;;;;;;9.95;100.00;102097.41;4938084;28;19944;-74
2023/05/02 03:36:21;;;;;;;;;;;;;;;9.95;100.00;102100.09;4932220;28;20293;-75
2023/05/02 03:38:46;;;;;;;;;;;;;;;9.90;100.00;102101.22;4933586;28;19930;-74
2023/05/02 03:41:11;;;;;;;;;;;;;;;9.89;100.00;102115.59;4932003;28;19918;-75
2023/05/02 03:43:36;;;;;;;;;;;;;;;9.84;100.00;102106.94;4940240;28;19965;-74
2023/05/02 03:46:06;;;;;;;;;;;;;;;9.88;100.00;102111.19;4928545;28;19933;-75
2023/05/02 03:48:32;;;;;;;;;;;;;;;9.86;100.00;102113.06;4935886;28;19934;-75
2023/05/02 03:50:57;;;;;;;;;;;;;;;9.84;100.00;102114.09;4937502;28;19922;-75
2023/05/02 03:53:22;;;;;;;;;;;;;;;9.77;100.00;102121.63;4936754;28;19958;-74
2023/05/02 03:55:47;;;;;;;;;;;;;;;9.79;100.00;102118.88;4932416;28;20361;-74
2023/05/02 03:58:12;;;;;;;;;;;;;;;9.78;100.00;102128.72;4926800;28;20731;-75
2023/05/02 04:00:38;;;;;;;;;;;;;;;9.77;100.00;102121.63;4941344;28;19965;-74
2023/05/02 04:03:03;;;;;;;;;;;;;;;9.75;100.00;102121.72;4916600;29;19930;-75
2023/05/02 04:05:29;;;;;;;;;;;;;;;9.78;100.00;102120.66;4904906;28;20398;-75
2023/05/02 04:07:54;;;;;;;;;;;;;;;9.65;100.00;102123.13;4937325;28;20409;-74
2023/05/02 04:10:19;;;;;;;;;;;;;;;9.67;100.00;102118.56;4938771;28;20125;-74
2023/05/02 04:12:45;;;;;;;;;;;;;;;9.59;100.00;102128.81;4936360;28;19993;-75
2023/05/02 04:15:10;;;;;;;;;;;;;;;9.55;100.00;102132.59;4936108;28;19927;-74
2023/05/02 04:17:35;;;;;;;;;;;;;;;9.56;100.00;102135.22;4936764;29;19923;-74
2023/05/02 04:20:01;;;;;;;;;;;;;;;9.43;100.00;102150.22;4941083;28;19926;-75
2023/05/02 04:22:26;;;;;;;;;;;;;;;9.40;100.00;102145.88;4920868;29;19934;-74
2023/05/02 04:24:52;;;;;;;;;;;;;;;9.37;100.00;102154.09;4938283;28;19922;-74
2023/05/02 04:27:17;;;;;;;;;;;;;;;9.43;100.00;102148.41;4920900;29;19934;-75
2023/05/02 04:29:42;;;;;;;;;;;;;;;9.43;100.00;102152.88;4934905;28;19919;-75
2023/05/02 04:32:07;;;;;;;;;;;;;;;9.45;100.00;102159.03;4912770;29;20273;-75
2023/05/02 04:34:32;;;;;;;;;;;;;;;9.42;100.00;102165.44;4939818;28;20306;-74
2023/05/02 04:36:58;;;;;;;;;;;;;;;9.40;100.00;102167.34;4921368;29;20289;-74
2023/05/02 04:39:24;;;;;;;;;;;;;;;9.33;100.00;102173.09;4935543;28;20527;-75
2023/05/02 04:41:49;;;;;;;;;;;;;;;9.29;100.00;102172.38;4935063;28;20125;-75
2023/05/02 04:44:14;;;;;;;;;;;;;;;9.23;100.00;102173.56;4937230;28;19942;-74
2023/05/02 04:46:40;;;;;;;;;;;;;;;9.20;100.00;102171.03;4937089;28;19957;-74
2023/05/02 04:49:05;;;;;;;;;;;;;;;9.14;100.00;102174.00;4934542;28;19978;-74
2023/05/02 04:51:30;;;;;;;;;;;;;;;9.09;100.00;102178.75;4928036;29;19927;-74
2023/05/02 04:53:56;;;;;;;;;;;;;;;9.05;100.00;102187.88;4939842;28;20381;-74
2023/05/02 04:56:21;;;;;;;;;;;;;;;9.06;100.00;102194.97;4927728;29;19934;-75
2023/05/02 04:58:46;;;;;;;;;;;;;;;9.06;100.00;102194.97;4907098;28;19919;-74
2023/05/02 05:01:11;;;;;;;;;;;;;;;9.08;100.00;102193.94;4933841;28;19922;-74
2023/05/02 05:03:37;;;;;;;;;;;;;;;9.12;100.00;102202.72;4931168;29;19985;-74
2023/05/02 05:06:02;;;;;;;;;;;;;;;9.09;100.00;102205.56;4939939;28;20021;-74
2023/05/02 05:08:27;;;;;;;;;;;;;;;9.21;100.00;102214.78;4946857;28;19944;-75
2023/05/02 05:10:52;;;;;;;;;;;;;;;9.31;100.00;102216.03;4945555;28;19929;-74
2023/05/02 05:13:18;;;;;;;;;;;;;;;9.32;100.00;102227.66;4938076;28;19987;-74
2023/05/02 05:15:43;;;;;;;;;;;;;;;9.33;100.00;102227.56;4947212;28;20016;-75
2023/05/02 05:18:08;;;;;;;;;;;;;;;9.36;100.00;102232.75;4940978;28;19922;-74
2023/05/02 05:20:33;;;;;;;;;;;;;;;9.36;100.00;102229.22;4938810;28;20328;-75
2023/05/02 05:22:59;;;;;;;;;;;;;;;9.33;100.00;102237.41;4936756;28;20460;-74
2023/05/02 05:25:27;;;;;;;;;;;;;;;9.41;100.00;102238.75;4937665;28;20366;-74
2023/05/02 05:27:54;;;;;;;;;;;;;;;9.48;100.00;102241.16;4938551;28;19926;-74
2023/05/02 05:30:19;;;;;;;;;;;;;;;9.49;100.00;102242.88;4933794;28;19927;-74
2023/05/02 05:32:44;;;;;;;;;;;;;;;9.42;100.00;102236.94;4941620;28;19923;-74
2023/05/02 05:35:09;;;;;;;;;;;;;;;9.58;100.00;102250.44;4942742;28;19922;-75
2023/05/02 05:37:38;;;;;;;;;;;;;;;9.66;100.00;102253.59;4929188;28;19922;-74
2023/05/02 05:40:03;;;;;;;;;;;;;;;9.69;100.00;102252.56;4930128;29;19929;-74
2023/05/02 05:42:29;;;;;;;;;;;;;;;9.74;100.00;102256.75;4936342;28;19926;-75
2023/05/02 05:44:54;;;;;;;;;;;;;;;9.88;100.00;102266.78;4940858;28;20023;-74
2023/05/02 05:47:21;;;;;;;;;;;;;;;9.80;100.00;102263.63;4937313;28;20365;-75
2023/05/02 05:49:46;;;;;;;;;;;;;;;9.80;100.00;102262.75;4934600;28;19980;-74
2023/05/02 05:52:11;;;;;;;;;;;;;;;9.93;100.00;102260.31;4937568;28;20059;-75
2023/05/02 05:54:37;;;;;;;;;;;;;;;9.99;100.00;102270.69;4940568;28;19922;-74
2023/05/02 05:57:02;;;;;;;;;;;;;;;10.09;100.00;102263.03;4944756;28;19962;-74
2023/05/02 05:59:27;;;;;;;;;;;;;;;10.12;100.00;102278.97;4924137;28;19976;-75
2023/05/02 06:01:53;;;;;;;;;;;;;;;10.03;100.00;102283.00;4938754;28;20961;-74
2023/05/02 06:04:18;;;;;;;;;;;;;;;9.95;100.00;102278.03;4936539;28;20057;-74
2023/05/02 06:06:43;;;;;;;;;;;;;;;9.95;100.00;102286.09;4941611;28;20509;-75
2023/05/02 06:09:08;;;;;;;;;;;;;;;9.92;100.00;102288.94;4947459;28;20400;-74
2023/05/02 06:11:35;;;;;;;;;;;;;;;9.90;100.00;102293.50;4935187;28;20039;-74
2023/05/02 06:14:00;;;;;;;;;;;;;;;9.80;100.00;102298.50;4943781;28;20015;-75
2023/05/02 06:16:25;;;;;;;;;;;;;;;9.81;100.00;102302.91;4937005;28;20356;-74
2023/05/02 06:18:51;;;;;;;;;;;;;;;9.78;100.00;102305.75;4941297;28;20435;-75
2023/05/02 06:21:17;;;;;;;;;;;;;;;9.79;100.00;102302.13;4941236;28;19933;-74
2023/05/02 06:23:42;;;;;;;;;;;;;;;9.77;100.00;102306.69;4930517;28;19926;-75
2023/05/02 06:26:08;;;;;;;;;;;;;;;9.64;100.00;102305.59;4932187;28;20294;-74
2023/05/02 06:28:34;;;;;;;;;;;;;;;9.61;100.00;102311.97;4934671;28;19981;-75
2023/05/02 06:31:03;;;;;;;;;;;;;;;9.41;100.00;102320.97;4938526;28;20016;-75
2023/05/02 06:33:29;;;;;;;;;;;;;;;9.51;100.00;102329.47;4939171;28;19929;-74
2023/05/02 06:35:54;;;;;;;;;;;;;;;9.55;100.00;102331.03;4934795;28;20810;-74
2023/05/02 06:38:19;;;;;;;;;;;;;;;9.62;100.00;102335.16;4929872;28;19929;-74
2023/05/02 06:40:45;;;;;;;;;;;;;;;9.58;100.00;102344.28;4935505;28;20397;-75
2023/05/02 06:43:10;;;;;;;;;;;;;;;9.77;100.00;102343.38;4936225;28;20449;-75
2023/05/02 06:45:36;;;;;;;;;;;;;;;9.83;100.00;102354.66;4931197;28;20437;-74
2023/05/02 06:48:01;;;;;;;;;;;;;;;9.97;100.00;102347.72;4939454;28;20456;-75
2023/05/02 06:50:27;;;;;;;;;;;;;;;10.01;100.00;102360.03;4934078;28;19922;-74
2023/05/02 06:52:52;;;;;;;;;;;;;;;10.00;100.00;102358.28;4937552;28;19925;-74
2023/05/02 06:55:18;;;;;;;;;;;;;;;10.15;100.00;102373.63;4932085;28;20196;-74
2023/05/02 06:57:43;;;;;;;;;;;;;;;10.30;100.00;102376.44;4934337;28;19923;-74
2023/05/02 07:00:09;;;;;;;;;;;;;;;10.42;100.00;102370.47;4930144;28;20106;-74
2023/05/02 07:02:34;;;;;;;;;;;;;;;10.48;100.00;102370.13;4938691;28;19961;-74
2023/05/02 07:04:59;;;;;;;;;;;;;;;10.52;100.00;102386.09;4938350;28;20056;-76
2023/05/02 07:07:25;;;;;;;;;;;;;;;10.69;100.00;102382.50;4935448;28;19923;-74
2023/05/02 07:09:50;;;;;;;;;;;;;;;10.76;100.00;102370.50;4938867;28;19930;-74
2023/05/02 07:12:15;;;;;;;;;;;;;;;10.88;100.00;102383.25;4932142;28;20337;-74
2023/05/02 07:14:41;;;;;;;;;;;;;;;10.99;100.00;102396.09;4934686;28;19930;-74
2023/05/02 07:17:06;;;;;;;;;;;;;;;11.08;100.00;102397.44;4936639;28;19927;-74
2023/05/02 07:19:32;;;;;;;;;;;;;;;11.05;100.00;102395.75;4915038;29;19934;-74
2023/05/02 07:21:57;;;;;;;;;;;;;;;11.12;100.00;102407.06;4936073;28;20172;-74
2023/05/02 07:24:22;;;;;;;;;;;;;;;11.17;100.00;102407.66;4933385;28;20013;-75
2023/05/02 07:26:47;;;;;;;;;;;;;;;11.16;100.00;102407.75;4931495;28;19926;-74
2023/05/02 07:29:13;;;;;;;;;;;;;;;11.32;100.00;102411.31;4932216;28;20014;-74
2023/05/02 07:31:38;;;;;;;;;;;;;;;11.33;100.00;102423.78;4935022;28;19922;-75
2023/05/02 07:34:03;;;;;;;;;;;;;;;11.34;100.00;102424.69;4933697;28;19922;-73
2023/05/02 07:36:28;;;;;;;;;;;;;;;11.17;100.00;102434.53;4930658;28;20440;-73
2023/05/02 07:38:53;;;;;;;;;;;;;;;11.14;100.00;102434.69;4936811;29;19923;-73
2023/05/02 07:41:19;;;;;;;;;;;;;;;11.03;100.00;102432.59;4930120;28;19968;-73
2023/05/02 07:43:44;;;;;;;;;;;;;;;11.10;100.00;102422.41;4934584;28;19936;-73
2023/05/02 07:46:09;;;;;;;;;;;;;;;11.01;100.00;102437.19;4935153;28;19922;-73
2023/05/02 07:48:35;;;;;;;;;;;;;;;11.14;100.00;102429.31;4940593;28;19922;-73
2023/05/02 07:51:06;;;;;;;;;;;;;;;11.31;100.00;102430.22;4934524;28;20004;-73
2023/05/02 07:53:32;;;;;;;;;;;;;;;11.57;100.00;102439.50;4936918;28;20372;-72
2023/05/02 07:55:57;;;;;;;;;;;;;;;11.57;100.00;102439.50;4937610;28;19922;-73
2023/05/02 07:58:22;;;;;;;;;;;;;;;11.81;100.00;102436.38;4936895;28;19922;-73
2023/05/02 08:00:47;;;;;;;;;;;;;;;11.95;100.00;102435.56;4936867;28;19961;-73
2023/05/02 08:03:12;;;;;;;;;;;;;;;12.05;91.57;102435.97;4940743;28;20034;-73
2023/05/02 08:05:38;;;;;;;;;;;;;;;12.23;92.12;102440.25;4937909;28;19926;-73
2023/05/02 08:08:03;;;;;;;;;;;;;;;12.38;95.32;102440.28;4935038;28;20336;-73
2023/05/02 08:10:28;;;;;;;;;;;;;;;12.67;88.20;102443.03;4936716;28;20014;-73
2023/05/02 08:12:54;;;;;;;;;;;;;;;12.72;85.82;102441.78;4937690;28;19972;-73
2023/05/02 08:15:19;;;;;;;;;;;;;;;12.55;82.83;102452.72;4937967;28;19923;-73
2023/05/02 08:17:44;;;;;;;;;;;;;;;12.59;77.34;102454.28;4937211;28;19923;-73
2023/05/02 08:20:10;;;;;;;;;;;;;;;12.51;76.47;102459.25;4937984;28;19926;-73
2023/05/02 08:22:35;;;;;;;;;;;;;;;12.38;76.31;102462.72;4940216;28;19926;-73
2023/05/02 08:25:00;;;;;;;;;;;;;;;12.35;78.71;102460.19;4936118;28;19926;-73
2023/05/02 08:27:26;;;;;;;;;;;;;;;12.60;83.41;102469.50;4936799;28;19923;-73
2023/05/02 08:29:51;;;;;;;;;;;;;;;12.53;71.81;102473.50;4935082;28;19966;-73
2023/05/02 08:32:16;;;;;;;;;;;;;;;12.29;76.65;102479.41;4938339;28;20926;-73
2023/05/02 08:34:41;;;;;;;;;;;;;;;12.18;74.75;102477.34;4939432;28;20376;-73
2023/05/02 08:37:07;;;;;;;;;;;;;;;12.22;70.34;102486.09;4938405;28;20745;-73
2023/05/02 08:39:33;;;;;;;;;;;;;;;12.33;78.16;102485.47;4924544;28;20330;-74
2023/05/02 08:41:58;;;;;;;;;;;;;;;12.00;75.80;102484.66;4938813;28;20009;-73
2023/05/02 08:44:23;;;;;;;;;;;;;;;12.03;75.29;102497.94;4942854;28;19922;-73
2023/05/02 08:46:49;;;;;;;;;;;;;;;11.97;74.59;102503.63;4940395;28;19938;-73
2023/05/02 08:49:14;;;;;;;;;;;;;;;11.77;77.32;102494.03;4944851;28;19966;-73
2023/05/02 08:51:40;;;;;;;;;;;;;;;11.78;73.69;102499.31;4943204;28;19925;-73
2023/05/02 08:54:08;;;;;;;;;;;;;;;11.89;76.27;102498.69;4937122;28;19922;-73
2023/05/02 08:56:33;;;;;;;;;;;;;;;11.76;74.28;102500.38;4944035;28;20397;-73
2023/05/02 08:58:58;;;;;;;;;;;;;;;11.74;82.86;102502.28;4937141;28;20013;-73
2023/05/02 09:01:24;;;;;;;;;;;;;;;11.76;75.17;102512.00;4935687;28;19922;-73
2023/05/02 09:03:49;;;;;;;;;;;;;;;11.94;77.95;102518.16;4939332;28;19930;-73
2023/05/02 09:06:15;;;;;;;;;;;;;;;12.19;76.04;102518.59;4938998;28;19922;-73
2023/05/02 09:08:41;;;;;;;;;;;;;;;12.43;76.23;102514.47;4942053;28;19927;-73
2023/05/02 09:11:07;;;;;;;;;;;;;;;12.57;73.89;102520.88;4923377;28;19945;-75
2023/05/02 09:13:35;;;;;;;;;;;;;;;12.31;68.79;102515.19;4935612;28;19927;-73
2023/05/02 09:16:01;;;;;;;;;;;;;;;12.57;72.35;102531.63;4940337;28;19922;-72
2023/05/02 09:18:30;;;;;;;;;;;;;;;12.66;74.23;102525.72;4939907;28;20154;-73
2023/05/02 09:20:56;;;;;;;;;;;;;;;12.75;75.38;102535.06;4932120;28;19970;-73
2023/05/02 09:23:30;;;;;;;;;;;;;;;12.85;69.47;102543.47;4942936;28;20021;-74
2023/05/02 09:25:55;;;;;;;;;;;;;;;12.80;68.15;102534.78;4938443;28;19923;-73
2023/05/02 09:28:21;;;;;;;;;;;;;;;12.82;72.62;102539.13;4944750;28;20349;-72
2023/05/02 09:30:46;;;;;;;;;;;;;;;13.15;70.61;102542.56;4938515;28;20501;-73
2023/05/02 09:33:12;;;;;;;;;;;;;;;13.31;71.30;102543.31;4946780;28;20440;-72
2023/05/02 09:35:39;;;;;;;;;;;;;;;13.95;76.25;102551.03;4942948;28;19954;-73
2023/05/02 09:38:04;;;;;;;;;;;;;;;14.30;65.45;102548.81;4937258;28;19923;-74
2023/05/02 09:40:31;;;;;;;;;;;;;;;13.97;64.02;102548.22;4938658;28;20397;-73
2023/05/02 09:42:56;;;;;;;;;;;;;;;14.31;67.32;102551.41;4937755;28;20285;-73
2023/05/02 09:45:22;;;;;;;;;;;;;;;14.14;60.50;102552.50;4938195;28;19934;-73
2023/05/02 09:47:48;;;;;;;;;;;;;;;13.43;58.89;102552.50;4942754;28;20024;-73
2023/05/02 09:50:33;;;;;;;;;;;;;;;13.32;58.39;102561.25;4939263;28;19945;-73
2023/05/02 09:53:02;;;;;;;;;;;;;;;13.39;60.37;102566.25;4941570;28;19929;-73
2023/05/02 09:55:27;;;;;;;;;;;;;;;13.32;61.70;102569.34;4941142;28;19929;-73
2023/05/02 09:57:53;;;;;;;;;;;;;;;13.23;59.84;102569.94;4937478;28;20360;-73
2023/05/02 10:00:19;;;;;;;;;;;;;;;13.24;59.62;102570.78;4935483;28;20320;-73
2023/05/02 10:02:44;;;;;;;;;;;;;;;13.23;65.19;102567.22;4943576;28;19977;-72
2023/05/02 10:05:10;;;;;;;;;;;;;;;13.61;61.40;102577.47;4942089;28;20325;-72
2023/05/02 10:07:35;;;;;;;;;;;;;;;14.19;62.03;102572.00;4939595;28;20254;-73
2023/05/02 10:10:00;;;;;;;;;;;;;;;14.37;59.61;102569.03;4935130;28;19961;-73
2023/05/02 10:12:26;;;;;;;;;;;;;;;14.03;55.84;102572.13;4926071;29;20232;-73
2023/05/02 10:14:53;;;;;;;;;;;;;;;14.32;60.32;102563.94;4943848;28;20338;-73
2023/05/02 10:17:25;;;;;;;;;;;;;;;14.90;56.71;102573.63;4924801;28;19925;-73
2023/05/02 10:19:53;;;;;;;;;;;;;;;14.98;57.41;102577.53;4938343;28;19922;-73
2023/05/02 10:22:18;;;;;;;;;;;;;;;14.50;55.29;102585.28;4925588;29;19966;-73
2023/05/02 10:24:44;;;;;;;;;;;;;;;14.39;56.44;102578.78;4938166;28;19926;-73
2023/05/02 10:27:09;;;;;;;;;;;;;;;14.30;57.57;102582.09;4940188;28;20001;-72
2023/05/02 10:29:35;;;;;;;;;;;;;;;13.89;56.78;102577.56;4937175;28;19922;-73
2023/05/02 10:32:00;;;;;;;;;;;;;;;13.94;59.77;102575.41;4929135;28;20227;-73
2023/05/02 10:34:26;;;;;;;;;;;;;;;14.29;59.00;102579.50;4938224;28;19922;-73
2023/05/02 10:36:51;;;;;;;;;;;;;;;14.23;58.52;102580.75;4924454;28;19922;-73
2023/05/02 10:39:18;;;;;;;;;;;;;;;13.90;56.57;102579.28;4940543;28;19929;-73
2023/05/02 10:41:43;;;;;;;;;;;;;;;13.95;61.06;102569.91;4932676;28;20402;-73
2023/05/02 10:44:08;;;;;;;;;;;;;;;13.97;57.73;102591.41;4941199;28;20025;-73
2023/05/02 10:46:35;;;;;;;;;;;;;;;14.14;58.76;102590.31;4927840;28;19927;-73
2023/05/02 10:49:00;;;;;;;;;;;;;;;14.52;59.01;102591.47;4941647;28;19926;-73
2023/05/02 10:51:26;;;;;;;;;;;;;;;14.79;58.67;102596.00;4933664;28;19998;-73
2023/05/02 10:53:51;;;;;;;;;;;;;;;14.73;52.00;102594.59;4935339;28;19922;-73
2023/05/02 10:56:20;;;;;;;;;;;;;;;14.68;55.44;102594.00;4940357;28;19937;-72
2023/05/02 10:58:49;;;;;;;;;;;;;;;14.32;53.68;102590.06;4935241;28;19962;-75
2023/05/02 11:01:23;;;;;;;;;;;;;;;14.24;52.79;102601.38;4937815;28;20330;-73
2023/05/02 11:03:56;;;;;;;;;;;;;;;15.36;54.56;102596.63;4933477;28;20666;-73
2023/05/02 11:06:29;;;;;;;;;;;;;;;15.53;51.14;102593.56;4936771;28;21111;-75
2023/05/02 11:09:14;;;;;;;;;;;;;;;16.36;49.47;102588.53;4936922;28;19929;-72
2023/05/02 11:11:43;;;;;;;;;;;;;;;17.22;44.43;102593.81;4934251;28;20332;-73
2023/05/02 11:14:12;;;;;;;;;;;;;;;16.20;43.71;102594.22;4935779;28;19922;-73
2023/05/02 11:16:56;;;;;;;;;;;;;;;16.57;47.12;102586.06;4938204;28;20026;-73
2023/05/02 11:19:21;;;;;;;;;;;;;;;16.72;47.79;102586.75;4933762;28;19923;-73
2023/05/02 11:21:46;;;;;;;;;;;;;;;16.55;47.59;102598.88;4938705;28;19989;-74
2023/05/02 11:24:31;;;;;;;;;;;;;;;16.98;47.07;102604.72;4935082;28;19949;-74
2023/05/02 11:27:16;;;;;;;;;;;;;;;17.38;44.86;102596.19;4936358;28;19922;-73
2023/05/02 11:29:51;;;;;;;;;;;;;;;18.23;43.42;102593.94;4935852;28;19930;-73
2023/05/02 11:32:16;;;;;;;;;;;;;;;19.38;43.79;102595.13;4926714;28;19923;-73
2023/05/02 11:34:41;;;;;;;;;;;;;;;19.99;40.98;102607.91;4942145;28;20024;-73
2023/05/02 11:37:11;;;;;;;;;;;;;;;20.14;36.91;102600.19;4933456;28;19985;-74
2023/05/02 11:39:36;;;;;;;;;;;;;;;20.98;35.12;102607.03;4935893;28;20362;-73
2023/05/02 11:42:01;;;;;;;;;;;;;;;21.47;34.25;102586.91;4935805;28;20049;-73
2023/05/02 11:44:27;;;;;;;;;;;;;;;21.94;34.16;102596.09;4932533;28;19922;-74
2023/05/02 11:46:52;;;;;;;;;;;;;;;21.96;39.25;102589.47;4932003;28;19966;-74
2023/05/02 11:49:17;;;;;;;;;;;;;;;21.83;37.43;102589.81;4938008;28;19923;-74
2023/05/02 11:51:43;;;;;;;;;;;;;;;21.54;36.99;102593.53;4938578;28;19922;-74
2023/05/02 11:54:09;;;;;;;;;;;;;;;22.20;35.29;102587.16;4936707;28;19926;-74
2023/05/02 11:56:34;;;;;;;;;;;;;;;21.96;34.19;102599.53;4938800;28;19981;-72
2023/05/02 11:59:03;;;;;;;;;;;;;;;21.47;37.37;102592.38;4940120;28;19922;-73
2023/05/02 12:01:29;;;;;;;;;;;;;;;22.01;36.64;102595.31;4936775;28;19922;-73
2023/05/02 12:04:06;;;;;;;;;;;;;;;22.26;33.64;102597.47;4943119;28;20094;-73
2023/05/02 12:06:32;;;;;;;;;;;;;;;22.21;35.59;102595.22;4938646;28;19927;-74
2023/05/02 12:09:16;;;;;;;;;;;;;;;22.41;33.90;102604.13;4943003;28;19946;-73
2023/05/02 12:11:42;;;;;;;;;;;;;;;22.79;33.99;102604.00;4936908;28;19962;-74
2023/05/02 12:14:07;;;;;;;;;;;;;;;23.10;34.80;102597.22;4941396;28;20016;-74
2023/05/02 12:16:32;;;;;;;;;;;;;;;23.40;33.83;102606.88;4935482;28;20016;-74
2023/05/02 12:18:59;;;;;;;;;;;;;;;21.43;33.77;102610.09;4936904;28;19929;-73
2023/05/02 12:21:25;;;;;;;;;;;;;;;22.01;33.91;102614.47;4933336;28;19923;-74
2023/05/02 12:23:51;;;;;;;;;;;;;;;22.24;33.31;102614.06;4937756;28;19953;-76
2023/05/02 12:26:20;;;;;;;;;;;;;;;19.99;35.19;102620.69;4932679;28;19934;-73
2023/05/02 12:28:49;;;;;;;;;;;;;;;20.47;36.32;102619.91;4935417;28;19922;-74